Medway, ME (04460)

10:59 AM EDT on September 20, 2018 (GMT -0400)
THE | | Change Station
Active Advisory: Wind Advisory

Elev 531 ft 45.58 °N, 68.52 °W | Updated 36 seconds ago

Overcast
Overcast
58.6 °F
Feels Like 58.6 °F
N
4.5
Wind Variable Wind from SSW
Gusts 6.9 mph

Today
High -- | Low -- °F
--% Chance of Precip.
Yesterday
High -- | Low -- °F
Precip. -- in
Pressure 30.28 in
Visibility -9999.0 miles
Clouds
Dew Point 50 °F
Humidity 73%
Rainfall 0.00 in
Snow Depth Not available.
6:18 AM 6:35 PM
Waxing Gibbous, 82% visible
METAR KGNR 201356Z AUTO VRB04KT 10/08 A3026 RMK AO1 SLP254 T01000078
Pressure 30.28 in
Visibility -9999.0 miles
Clouds
Dew Point 50 °F
Humidity 73%
Rainfall 0.00 in
Snow Depth Not available.
6:18 AM 6:35 PM
Waxing Gibbous, 82% visible
METAR KGNR 201356Z AUTO VRB04KT 10/08 A3026 RMK AO1 SLP254 T01000078

Get Your Daily Forecast Email!

Thanks for signing up!

Be on the lookout for a verification email in your inbox.

You'll start receiving severe weather alerts in your inbox..

×

10-Day Weather Forecast

Almanac

Astronomy

Sep. 20, 2018 Rise Set
Actual Time
Civil Twilight
Nautical Twilight
Astronomical Twilight
Moon
Length of Visible Light
Length of Day
Tomorrow will be .
, % of the Moon is Illuminated

Today's Extremes

State Highs State Lows

Community

WunderPhotos

Category 6

Welcome to Category 6. This is the collective home for Weather Underground's featured writeups by Dr. Jeff Masters (right), Bob Henson (left), Chris Burt, and other regular contributors.

Nearby

Air Quality

  Air Quality AQ Index Pollutant
Not available.

Snow Depth

Station Depth Elevation

Earthquake Activity

City Distance Mag. Time & Date
Minimum magnitude displayed is 2.5.

Coastal Water Temperatures

Place Temperature

Stations

Nearby Weather Stations

Station Location Temp. Windchill Dew Point Humidity Wind Precip. Elev Updated Type
                   

Watches & Warnings

Wind Advisory
Issued: 3:23 AM EDT Sep. 20, 2018 – National Weather Service

... Wind Advisory in effect from 2 PM Friday to 11 am EDT
Saturday...

The National Weather Service in Caribou has issued a Wind
Advisory, which is in effect from 2 PM Friday to 11 am EDT
Saturday. The high wind watch is no longer in effect.

* Winds... south to southwest 15 to 25 mph with gusts up to 45
mph... becoming northwest after midnight Friday. Locally higher
gusts are possible across the higher terrain.

* Timing... Friday afternoon into Saturday morning.

* Impacts... gusty winds will blow around unsecured objects. Tree
limbs could be blown down and a few power outages may result.

Precautionary/preparedness actions...

A Wind Advisory means that wind gusts in excess of 45 mph are
expected. Winds this strong can make driving difficult... especially
for high profile vehicles. Use extra caution.



Duda